Time;durP1;ratioP1;P1;durP2;ratioP2;P2;SDS_P1;SDS_P2;PMS_P1;PMS_P2;Temp;Humidity;BMP_temperature;BMP_pressure;BME280_temperature;BME280_humidity;BME280_pressure;Samples;Min_cycle;Max_cycle;Signal;HPM_P1;HPM_P2
2022/05/15 00:01:32;;;;;;;;;1.00;1.00;;;;;20.55;47.11;99857.84;5057985;28;45524;-72
2022/05/15 00:03:58;;;;;;;;;2.00;2.00;;;;;20.66;46.99;99871.81;5057518;28;45523;-75
2022/05/15 00:06:24;;;;;;;;;3.67;3.00;;;;;20.73;46.39;99872.53;5057725;28;45524;-72
2022/05/15 00:08:49;;;;;;;;;5.00;5.00;;;;;20.76;46.19;99868.03;5057835;28;45480;-72
2022/05/15 00:11:19;;;;;;;;;2.33;2.00;;;;;20.91;45.80;99874.78;5058240;28;45471;-73
2022/05/15 00:13:47;;;;;;;;;1.67;1.67;;;;;20.91;46.23;99852.66;5058069;28;45436;-72
2022/05/15 00:16:12;;;;;;;;;1.00;1.00;;;;;21.06;45.47;99868.22;5057947;28;45579;-73
2022/05/15 00:18:38;;;;;;;;;2.00;1.00;;;;;21.07;45.87;99869.97;5057688;28;45444;-72
2022/05/15 00:21:04;;;;;;;;;1.00;1.00;;;;;21.13;44.65;99853.00;5057897;28;45420;-72
2022/05/15 00:23:31;;;;;;;;;2.00;2.00;;;;;21.30;44.79;99855.25;5057378;28;45494;-72
2022/05/15 00:25:57;;;;;;;;;1.67;1.67;;;;;21.35;45.68;99853.38;5057522;28;45741;-72
2022/05/15 00:28:22;;;;;;;;;2.00;1.00;;;;;21.34;44.09;99831.22;5057391;28;45330;-72
2022/05/15 00:30:49;;;;;;;;;2.00;1.67;;;;;21.47;43.91;99841.56;5057654;28;45468;-72
2022/05/15 00:33:14;;;;;;;;;2.00;1.00;;;;;21.52;43.67;99844.97;5057635;28;45443;-72
2022/05/15 00:35:41;;;;;;;;;2.33;2.33;;;;;21.54;43.71;99837.84;5057244;28;45376;-73
2022/05/15 00:38:08;;;;;;;;;1.00;1.00;;;;;21.59;44.38;99843.91;5057448;28;45396;-72
2022/05/15 00:40:38;;;;;;;;;1.00;1.00;;;;;21.66;43.38;99837.50;5057619;28;45476;-72
2022/05/15 00:43:05;;;;;;;;;3.67;2.00;;;;;21.67;43.59;99836.59;5057126;28;46130;-72
2022/05/15 00:45:30;;;;;;;;;1.00;1.00;;;;;21.71;43.86;99838.28;5057059;28;45479;-74
2022/05/15 00:47:56;;;;;;;;;1.00;1.00;;;;;21.61;42.84;99808.41;5057183;28;45455;-73
2022/05/15 00:50:29;;;;;;;;;2.33;2.00;;;;;21.78;43.06;99836.31;5057320;28;45602;-73
2022/05/15 00:53:00;;;;;;;;;2.00;2.00;;;;;21.79;43.62;99828.28;5057155;28;46331;-73
2022/05/15 00:55:33;;;;;;;;;1.33;1.00;;;;;21.85;42.71;99819.28;5057033;28;45457;-72
2022/05/15 00:58:08;;;;;;;;;2.00;2.00;;;;;21.91;42.95;99827.09;5055973;28;45318;-72
2022/05/15 01:00:35;;;;;;;;;1.00;1.00;;;;;21.96;42.71;99822.47;5056993;28;45319;-72
2022/05/15 01:03:05;;;;;;;;;1.33;1.33;;;;;21.96;42.64;99826.94;5056928;28;46223;-73
2022/05/15 01:05:32;;;;;;;;;2.00;2.00;;;;;21.83;42.20;99807.81;5056927;28;45429;-73
2022/05/15 01:07:58;;;;;;;;;1.33;1.33;;;;;21.93;42.91;99827.91;5060526;28;45387;-73
2022/05/15 01:10:24;;;;;;;;;0.33;0.33;;;;;21.92;42.90;99817.31;5060558;28;45384;-72
2022/05/15 01:12:53;;;;;;;;;2.00;1.67;;;;;21.93;43.04;99819.06;5060406;28;45341;-73
2022/05/15 01:15:23;;;;;;;;;2.00;1.00;;;;;21.91;42.04;99819.09;5060693;28;45241;-72
2022/05/15 01:17:49;;;;;;;;;1.67;1.67;;;;;21.92;42.50;99835.91;5060885;28;45384;-72
2022/05/15 01:20:19;;;;;;;;;1.00;1.00;;;;;21.89;42.80;99844.00;5060862;28;45440;-72
2022/05/15 01:22:45;;;;;;;;;2.00;1.00;;;;;21.88;43.19;99860.84;5060470;28;45707;-72
2022/05/15 01:25:20;;;;;;;;;2.00;1.00;;;;;21.87;43.47;99880.41;5060256;28;45379;-72
2022/05/15 01:27:52;;;;;;;;;2.00;1.67;;;;;21.85;43.05;99873.31;5060578;28;45514;-72
2022/05/15 01:30:18;;;;;;;;;1.67;1.00;;;;;21.83;43.06;99874.28;5060482;28;45575;-72
2022/05/15 01:32:44;;;;;;;;;1.00;1.00;;;;;22.01;42.89;99908.34;5060060;28;45961;-73
2022/05/15 01:35:09;;;;;;;;;4.67;1.33;;;;;22.08;42.33;99913.50;5060239;28;45437;-72
2022/05/15 01:37:35;;;;;;;;;1.00;1.00;;;;;22.15;42.75;99910.63;5060375;28;45534;-72
2022/05/15 01:40:03;;;;;;;;;1.67;1.00;;;;;22.19;42.68;99912.28;5060457;28;45362;-73
2022/05/15 01:42:29;;;;;;;;;2.00;2.00;;;;;22.22;43.28;99909.56;5060032;28;45423;-72
2022/05/15 01:44:55;;;;;;;;;2.33;2.00;;;;;22.15;43.11;99915.94;5060076;28;45421;-73
2022/05/15 01:47:20;;;;;;;;;2.00;2.00;;;;;22.20;43.09;99923.78;5059030;28;45342;-72
2022/05/15 01:49:46;;;;;;;;;2.00;2.00;;;;;22.18;43.49;99914.97;5059185;28;45299;-73
2022/05/15 01:52:12;;;;;;;;;2.00;2.00;;;;;22.16;43.36;99924.78;5059785;28;45523;-72
2022/05/15 01:54:38;;;;;;;;;2.33;2.00;;;;;22.13;43.48;99904.47;5059856;28;45459;-72
2022/05/15 01:57:05;;;;;;;;;2.00;2.00;;;;;22.01;43.83;99872.91;5060077;28;45520;-73
2022/05/15 01:59:30;;;;;;;;;1.00;1.00;;;;;22.08;43.68;99871.81;5059862;28;45366;-79
2022/05/15 02:01:56;;;;;;;;;1.67;1.67;;;;;22.14;43.50;99876.09;5059635;28;45494;-73
2022/05/15 02:04:21;;;;;;;;;2.00;1.67;;;;;22.11;43.65;99858.44;5058687;28;45352;-72
2022/05/15 02:06:47;;;;;;;;;4.00;2.00;;;;;22.13;43.60;99864.56;5059839;28;45831;-72
2022/05/15 02:09:13;;;;;;;;;2.00;1.00;;;;;22.05;43.71;99867.44;5059946;28;45235;-72
2022/05/15 02:11:38;;;;;;;;;2.33;2.33;;;;;21.94;43.61;99845.59;5059580;28;45509;-72
2022/05/15 02:14:05;;;;;;;;;3.00;2.33;;;;;21.95;43.96;99871.28;5059470;28;45445;-73
2022/05/15 02:16:31;;;;;;;;;2.33;2.00;;;;;21.87;44.52;99853.81;5058195;28;45532;-72
2022/05/15 02:18:57;;;;;;;;;1.33;1.33;;;;;21.62;44.77;99815.44;5058886;28;45443;-73
2022/05/15 02:21:23;;;;;;;;;2.00;1.67;;;;;21.51;45.76;99814.88;5059613;28;45443;-72
2022/05/15 02:23:48;;;;;;;;;1.67;1.67;;;;;21.41;46.27;99826.66;5059376;28;46037;-72
2022/05/15 02:26:14;;;;;;;;;3.00;2.00;;;;;21.29;45.48;99811.88;5059324;28;45291;-72
2022/05/15 02:28:40;;;;;;;;;2.33;1.67;;;;;21.26;45.17;99814.59;5059561;28;45475;-81
2022/05/15 02:31:05;;;;;;;;;4.00;2.00;;;;;21.29;45.64;99816.31;5059049;28;46120;-73
2022/05/15 02:33:32;;;;;;;;;2.67;2.00;;;;;21.08;46.71;99802.66;5057687;28;45308;-72
2022/05/15 02:35:58;;;;;;;;;2.00;2.00;;;;;21.02;47.43;99801.03;5059254;28;45309;-72
2022/05/15 02:38:24;;;;;;;;;3.00;3.00;;;;;20.99;47.61;99802.88;5059562;28;45915;-73
2022/05/15 02:40:50;;;;;;;;;8.00;8.00;;;;;20.79;48.26;99780.38;5059428;28;45357;-72
2022/05/15 02:43:15;;;;;;;;;4.00;4.00;;;;;20.77;48.05;99803.44;5058836;28;45573;-72
2022/05/15 02:45:41;;;;;;;;;2.00;2.00;;;;;20.60;48.62;99787.88;5058914;28;45543;-73
2022/05/15 02:51:03;;;;;;;;;2.00;2.00;;;;;20.43;48.24;99772.34;5059452;28;45449;-72
2022/05/15 02:51:04;;;;;;;;;2.00;2.00;;;;;20.51;49.47;99803.97;5059054;28;45512;-72
2022/05/15 02:53:33;;;;;;;;;2.00;2.00;;;;;20.31;49.61;99788.50;5057614;28;45554;-72
2022/05/15 02:56:00;;;;;;;;;1.67;1.67;;;;;20.37;49.00;99799.00;5058914;28;45254;-72
2022/05/15 02:58:26;;;;;;;;;2.33;2.00;;;;;20.31;49.40;99807.06;5058923;28;45429;-72
2022/05/15 03:00:51;;;;;;;;;2.00;2.00;;;;;20.17;49.63;99804.72;5058482;28;45443;-72
2022/05/15 03:03:17;;;;;;;;;3.33;3.00;;;;;20.14;49.42;99798.63;5058751;28;45440;-74
2022/05/15 03:05:42;;;;;;;;;1.00;1.00;;;;;20.01;49.10;99782.09;5058909;28;45500;-72
2022/05/15 03:08:08;;;;;;;;;2.00;2.00;;;;;19.97;49.19;99775.97;5059188;28;45348;-72
2022/05/15 03:10:33;;;;;;;;;1.00;1.00;;;;;20.01;48.98;99790.03;5058478;28;45449;-75
2022/05/15 03:12:59;;;;;;;;;3.00;3.00;;;;;20.04;49.10;99785.56;5057113;28;45713;-79
2022/05/15 03:15:24;;;;;;;;;1.33;1.33;;;;;20.01;49.52;99785.59;5057559;28;45379;-72
2022/05/15 03:17:50;;;;;;;;;1.33;1.33;;;;;20.02;48.99;99782.06;5058634;28;45483;-72
2022/05/15 03:20:17;;;;;;;;;3.00;2.00;;;;;20.02;48.31;99771.47;5056738;28;46375;-72
2022/05/15 03:22:43;;;;;;;;;1.67;1.67;;;;;20.08;48.73;99772.25;5058623;28;45393;-72
2022/05/15 03:25:09;;;;;;;;;1.00;1.00;;;;;20.01;48.96;99759.09;5057167;28;45337;-72
2022/05/15 03:27:35;;;;;;;;;1.33;1.00;;;;;20.15;48.08;99756.16;5059197;28;45487;-72
2022/05/15 03:30:02;;;;;;;;;1.00;1.00;;;;;20.24;47.84;99755.09;5056260;28;46363;-70
2022/05/15 03:32:28;;;;;;;;;1.00;1.00;;;;;20.41;46.26;99752.94;5056904;28;45535;-70
2022/05/15 03:34:53;;;;;;;;;1.00;1.00;;;;;20.51;46.40;99748.25;5059404;28;45372;-73
2022/05/15 03:37:19;;;;;;;;;0.33;0.33;;;;;20.50;45.91;99732.41;5058528;28;45198;-71
2022/05/15 03:39:44;;;;;;;;;1.00;1.00;;;;;20.65;46.20;99748.88;5058529;28;46113;-71
2022/05/15 03:42:10;;;;;;;;;1.00;1.00;;;;;20.52;47.49;99728.78;5058176;28;45531;-71
2022/05/15 03:44:37;;;;;;;;;2.67;1.00;;;;;20.55;48.17;99744.66;5058120;28;45518;-72
2022/05/15 03:47:04;;;;;;;;;1.67;1.00;;;;;20.56;48.31;99757.00;5058452;28;45440;-71
2022/05/15 03:49:30;;;;;;;;;2.00;2.00;;;;;20.58;47.13;99756.97;5057626;28;46116;-71
2022/05/15 03:51:55;;;;;;;;;1.00;1.00;;;;;20.64;47.68;99743.59;5058174;28;45389;-71
2022/05/15 03:54:21;;;;;;;;;3.00;1.00;;;;;20.61;47.13;99730.38;5058302;28;45310;-72
2022/05/15 03:56:49;;;;;;;;;1.67;1.00;;;;;20.76;46.47;99743.28;5058222;28;45319;-71
2022/05/15 03:59:18;;;;;;;;;1.00;1.00;;;;;20.80;46.29;99741.44;5057691;28;45482;-71
2022/05/15 04:01:43;;;;;;;;;1.00;1.00;;;;;20.79;47.13;99737.00;5057563;28;45619;-71
2022/05/15 04:04:09;;;;;;;;;1.00;1.00;;;;;20.80;48.05;99744.09;5057743;28;45360;-71
2022/05/15 04:06:35;;;;;;;;;2.00;2.00;;;;;20.79;48.06;99739.66;5057979;28;45499;-71
2022/05/15 04:09:01;;;;;;;;;2.00;1.00;;;;;20.72;47.81;99732.78;5057514;28;45445;-72
2022/05/15 04:11:27;;;;;;;;;2.00;1.00;;;;;20.75;47.92;99743.31;5057004;28;45791;-71
2022/05/15 04:13:52;;;;;;;;;1.67;1.00;;;;;20.73;47.81;99738.06;5055978;28;45300;-71
2022/05/15 04:16:18;;;;;;;;;1.33;1.33;;;;;20.76;47.12;99743.28;5055804;28;45259;-71
2022/05/15 04:18:43;;;;;;;;;2.33;2.00;;;;;20.78;47.04;99735.28;5057158;28;46195;-71
2022/05/15 04:21:10;;;;;;;;;2.00;1.33;;;;;20.73;46.15;99713.28;5055804;28;45544;-71
2022/05/15 04:23:36;;;;;;;;;1.67;1.67;;;;;20.79;47.10;99715.78;5056051;28;45343;-71
2022/05/15 04:26:02;;;;;;;;;2.00;1.00;;;;;20.85;46.94;99721.81;5056410;28;45486;-71
2022/05/15 04:28:28;;;;;;;;;2.33;2.00;;;;;20.80;46.70;99694.50;5057604;28;45377;-71
2022/05/15 04:30:53;;;;;;;;;1.00;1.00;;;;;20.72;47.49;99693.84;5057152;28;45415;-71
2022/05/15 04:33:19;;;;;;;;;1.00;0.00;;;;;20.76;46.00;99692.84;5058357;28;45380;-71
2022/05/15 04:35:44;;;;;;;;;1.67;1.00;;;;;20.92;45.53;99705.72;5058362;28;45303;-71
2022/05/15 04:38:11;;;;;;;;;1.67;1.67;;;;;20.86;46.02;99706.75;5057462;28;46074;-71
2022/05/15 04:40:36;;;;;;;;;2.00;1.00;;;;;20.83;46.25;99714.78;5056941;28;45254;-71
2022/05/15 04:43:03;;;;;;;;;1.00;1.00;;;;;20.71;46.80;99702.72;5057824;28;45168;-71
2022/05/15 04:45:29;;;;;;;;;1.33;1.33;;;;;20.69;46.96;99707.19;5057832;28;45499;-71
2022/05/15 04:47:55;;;;;;;;;2.00;2.00;;;;;20.56;46.19;99679.19;5057011;28;46098;-71
2022/05/15 04:50:22;;;;;;;;;1.00;1.00;;;;;20.68;46.10;99702.78;5057069;28;45489;-71
2022/05/15 04:52:47;;;;;;;;;1.33;1.00;;;;;20.73;46.06;99697.34;5055905;28;45418;-72
2022/05/15 04:55:14;;;;;;;;;2.00;1.00;;;;;20.82;45.35;99695.34;5057379;28;45381;-71
2022/05/15 04:57:40;;;;;;;;;1.00;1.00;;;;;20.92;45.17;99701.28;5056911;28;45413;-71
2022/05/15 05:00:09;;;;;;;;;1.00;1.00;;;;;21.08;44.13;99691.13;5056687;28;45561;-71
2022/05/15 05:02:36;;;;;;;;;2.00;1.00;;;;;21.20;44.53;99701.41;5057072;28;45366;-71
2022/05/15 05:05:02;;;;;;;;;1.00;1.00;;;;;21.23;44.69;99689.88;5056291;28;45534;-71
2022/05/15 05:07:29;;;;;;;;;1.67;1.00;;;;;21.27;44.56;99680.91;5055962;28;46286;-71
2022/05/15 05:09:55;;;;;;;;;2.00;2.00;;;;;21.47;43.73;99684.78;5056982;28;45496;-71
2022/05/15 05:12:21;;;;;;;;;1.00;1.00;;;;;21.57;43.87;99683.63;5056987;28;45369;-71
2022/05/15 05:14:46;;;;;;;;;1.67;1.67;;;;;21.58;42.96;99667.63;5057022;28;45320;-71
2022/05/15 05:17:13;;;;;;;;;2.00;1.00;;;;;21.83;43.34;99683.72;5056839;28;46002;-71
2022/05/15 05:19:38;;;;;;;;;0.00;0.00;;;;;22.00;42.06;99675.25;5056936;28;45424;-72
2022/05/15 05:22:04;;;;;;;;;1.67;1.67;;;;;22.13;42.03;99685.50;5056642;28;45161;-71
2022/05/15 05:24:30;;;;;;;;;1.67;1.33;;;;;22.19;41.83;99683.50;5057315;28;45546;-71
2022/05/15 05:26:56;;;;;;;;;2.00;2.00;;;;;22.29;41.27;99689.44;5056409;28;46025;-71
2022/05/15 05:29:21;;;;;;;;;1.00;1.00;;;;;22.36;41.29;99701.63;5056545;28;45425;-71
2022/05/15 05:31:48;;;;;;;;;2.33;1.00;;;;;22.44;40.97;99694.28;5056531;28;45496;-72
2022/05/15 05:34:13;;;;;;;;;2.00;1.00;;;;;22.59;40.57;99700.88;5057007;28;45831;-71
2022/05/15 05:36:39;;;;;;;;;4.00;1.00;;;;;22.69;40.41;99704.09;5055911;28;46029;-71
2022/05/15 05:39:04;;;;;;;;;1.00;1.00;;;;;22.78;39.89;99701.16;5056752;28;45481;-72
2022/05/15 05:41:30;;;;;;;;;2.00;1.00;;;;;22.82;40.02;99685.94;5055797;28;45506;-71
2022/05/15 05:43:55;;;;;;;;;1.67;1.33;;;;;22.92;39.89;99694.47;5056826;28;45443;-71
2022/05/15 05:46:21;;;;;;;;;1.00;1.00;;;;;22.84;39.88;99674.31;5056531;28;46494;-71
2022/05/15 05:48:48;;;;;;;;;1.00;1.00;;;;;22.98;39.67;99692.47;5055180;28;45360;-71
2022/05/15 05:51:15;;;;;;;;;0.67;0.67;;;;;23.02;39.97;99691.47;5056246;27;45588;-71
2022/05/15 05:53:41;;;;;;;;;1.67;1.00;;;;;23.07;39.53;99687.78;5057487;28;45408;-71
2022/05/15 05:56:07;;;;;;;;;1.00;1.00;;;;;23.11;39.38;99682.28;5057746;28;46171;-71
2022/05/15 05:58:33;;;;;;;;;2.33;2.00;;;;;23.12;39.25;99675.16;5057874;28;45389;-71
2022/05/15 06:00:59;;;;;;;;;2.00;1.00;;;;;23.16;39.17;99674.13;5057812;28;45361;-71
2022/05/15 06:06:09;;;;;;;;;2.00;1.67;;;;;23.26;39.36;99648.00;5055748;28;45804;-70
2022/05/15 06:08:35;;;;;;;;;1.33;1.33;;;;;23.36;38.37;99657.44;5056422;28;45587;-71
2022/05/15 06:11:00;;;;;;;;;2.00;1.00;;;;;23.56;38.32;99675.34;5057828;28;45406;-71
2022/05/15 06:13:26;;;;;;;;;2.00;1.00;;;;;23.52;38.21;99661.25;5058185;28;45388;-71
2022/05/15 06:15:54;;;;;;;;;0.67;0.33;;;;;23.73;38.52;99688.03;5063277;28;45368;-71
2022/05/15 06:18:19;;;;;;;;;9.67;9.67;;;;;23.75;38.46;99703.03;5068701;28;45385;-71
2022/05/15 06:20:45;;;;;;;;;3.00;2.00;;;;;23.82;38.20;99711.72;5067171;28;45215;-71
2022/05/15 06:23:10;;;;;;;;;2.33;1.33;;;;;23.82;38.11;99717.06;5066504;28;45588;-71
2022/05/15 06:25:36;;;;;;;;;2.00;1.33;;;;;23.95;37.19;99734.31;5068396;28;45530;-72
2022/05/15 06:28:03;;;;;;;;;2.00;2.00;;;;;24.10;37.20;99734.69;5062919;28;45512;-71
2022/05/15 06:30:28;;;;;;;;;2.00;2.00;;;;;24.31;36.88;99735.63;5067829;27;45340;-71
2022/05/15 06:32:54;;;;;;;;;1.67;1.67;;;;;24.60;37.08;99742.50;5068379;28;45373;-71
2022/05/15 06:35:20;;;;;;;;;2.00;1.00;;;;;24.84;35.90;99726.41;5066235;27;46033;-71
2022/05/15 06:37:45;;;;;;;;;2.00;1.00;;;;;25.04;35.67;99739.75;5066427;28;45464;-71
2022/05/15 06:40:13;;;;;;;;;2.67;1.00;;;;;25.28;35.45;99737.88;5067525;28;45402;-71
2022/05/15 06:42:40;;;;;;;;;2.00;1.67;;;;;25.36;35.67;99737.53;5063261;27;45600;-71
2022/05/15 06:45:06;;;;;;;;;2.00;1.00;;;;;25.34;35.86;99721.56;5052265;28;46217;-73
2022/05/15 06:47:33;;;;;;;;;2.00;2.00;;;;;25.24;35.47;99706.00;5052817;28;45524;-72
2022/05/15 06:49:58;;;;;;;;;1.33;0.67;;;;;25.22;35.36;99702.53;5056088;28;45477;-77
2022/05/15 06:52:25;;;;;;;;;1.33;1.33;;;;;25.26;35.53;99690.75;5056692;28;45805;-73
2022/05/15 06:54:51;;;;;;;;;1.00;1.00;;;;;25.46;35.25;99698.75;5056099;28;45627;-73
2022/05/15 06:57:28;;;;;;;;;2.67;1.33;;;;;25.67;35.05;99691.56;5054911;28;45633;-75
2022/05/15 06:59:57;;;;;;;;;2.00;2.00;;;;;25.91;34.72;99697.63;5053143;28;45407;-72
2022/05/15 07:02:27;;;;;;;;;1.00;1.00;;;;;26.07;34.28;99672.81;5056648;28;45510;-74
2022/05/15 07:04:53;;;;;;;;;1.67;1.00;;;;;26.42;33.74;99705.03;5048444;28;46759;-74
2022/05/15 07:07:19;;;;;;;;;3.00;2.00;;;;;26.62;33.75;99704.06;5056126;28;45568;-76
2022/05/15 07:09:45;;;;;;;;;1.00;1.00;;;;;27.22;32.85;99709.94;5056142;28;45331;-70
2022/05/15 07:12:11;;;;;;;;;4.00;2.00;;;;;28.72;30.52;99682.00;5057122;28;45515;-76
2022/05/15 07:14:37;;;;;;;;;5.00;5.00;;;;;29.95;29.35;99684.41;5058657;28;46009;-71
2022/05/15 07:17:04;;;;;;;;;2.00;2.00;;;;;29.62;28.78;99674.75;5057593;28;45578;-72
2022/05/15 07:19:29;;;;;;;;;3.00;2.00;;;;;29.13;30.40;99692.13;5058194;28;45473;-72
2022/05/15 07:21:55;;;;;;;;;2.00;1.00;;;;;28.60;30.40;99687.25;5059752;28;45491;-75
2022/05/15 07:24:22;;;;;;;;;2.00;2.00;;;;;28.27;31.09;99683.69;5058543;28;45901;-75
2022/05/15 07:26:49;;;;;;;;;2.00;2.00;;;;;28.04;31.25;99685.00;5060464;28;45345;-73
2022/05/15 07:29:16;;;;;;;;;5.00;2.00;;;;;27.88;31.48;99687.66;5057936;28;45332;-77
2022/05/15 07:31:43;;;;;;;;;4.00;4.00;;;;;27.89;32.08;99693.91;5060640;28;45522;-73
2022/05/15 07:34:09;;;;;;;;;2.00;2.00;;;;;27.87;31.66;99693.09;5056448;28;45542;-72
2022/05/15 07:36:34;;;;;;;;;3.00;2.00;;;;;27.95;31.86;99685.50;5057416;28;45647;-79
2022/05/15 07:39:03;;;;;;;;;4.33;3.00;;;;;28.07;31.71;99689.31;5055119;28;45861;-73
2022/05/15 07:41:28;;;;;;;;;2.67;2.67;;;;;28.21;31.11;99701.97;5052745;28;45534;-72
2022/05/15 07:43:54;;;;;;;;;2.00;2.00;;;;;28.46;31.33;99709.50;5038477;28;46421;-73
2022/05/15 07:46:22;;;;;;;;;3.00;3.00;;;;;28.66;30.86;99725.34;5058018;28;45920;-74
2022/05/15 07:48:48;;;;;;;;;3.00;2.67;;;;;29.76;29.18;99702.69;5056450;28;45373;-72
2022/05/15 07:51:13;;;;;;;;;3.00;2.67;;;;;30.03;29.01;99710.84;5059718;28;45441;-71
2022/05/15 07:53:40;;;;;;;;;2.00;2.00;;;;;29.81;28.82;99708.66;5056962;28;45971;-75
2022/05/15 07:56:09;;;;;;;;;3.33;3.00;;;;;29.63;29.26;99711.50;5057135;28;45471;-73
2022/05/15 07:58:38;;;;;;;;;3.00;2.00;;;;;29.80;28.99;99710.44;5057976;28;45432;-73
2022/05/15 08:01:05;;;;;;;;;5.00;3.00;;;;;31.33;26.97;99717.47;5057832;28;45472;-74
2022/05/15 08:03:43;;;;;;;;;4.00;2.00;;;;;32.78;25.10;99723.28;5058350;28;45457;-71
2022/05/15 08:08:59;;;;;;;;;0.67;0.67;;;;;35.00;22.80;99736.31;5057034;28;45449;-73
2022/05/15 08:11:28;;;;;;;;;1.00;1.00;;;;;35.59;22.38;99735.72;5057593;28;45377;-74
2022/05/15 08:13:56;;;;;;;;;2.67;2.00;;;;;35.62;22.34;99726.44;5058360;28;46447;-73
2022/05/15 08:16:22;;;;;;;;;3.00;2.50;;;;;35.67;22.49;99743.22;5057488;28;45544;-73
2022/05/15 08:24:16;;;;;;;;;1.33;1.33;;;;;37.65;20.72;99729.66;5059098;28;45488;-73
2022/05/15 08:26:44;;;;;;;;;3.67;2.33;;;;;39.42;19.40;99742.03;5057406;28;45480;-73
2022/05/15 08:29:10;;;;;;;;;3.00;3.00;;;;;40.00;18.13;99754.19;5057755;28;45258;-73
2022/05/15 08:31:36;;;;;;;;;2.00;2.00;;;;;39.62;18.73;99756.34;5057529;28;45256;-73
2022/05/15 08:34:01;;;;;;;;;2.67;2.00;;;;;38.50;19.84;99734.97;5057307;28;46206;-73
2022/05/15 08:36:27;;;;;;;;;3.00;1.67;;;;;37.50;20.68;99750.16;5057421;28;45201;-74
2022/05/15 08:38:52;;;;;;;;;3.00;2.00;;;;;37.14;21.01;99748.06;5057646;28;45567;-74
2022/05/15 08:41:30;;;;;;;;;4.00;3.00;;;;;39.23;18.91;99751.25;5058083;28;45732;-73
2022/05/15 08:44:11;;;;;;;;;2.00;1.67;;;;;41.89;17.36;99747.06;5057239;28;46104;-74
2022/05/15 08:46:48;;;;;;;;;3.00;1.33;;;;;42.56;17.14;99740.28;5057442;28;45207;-73
2022/05/15 08:49:33;;;;;;;;;2.67;2.00;;;;;43.29;16.09;99749.03;5057245;28;45364;-73
2022/05/15 08:52:09;;;;;;;;;2.67;1.67;;;;;43.78;14.70;99747.69;5057328;28;45908;-74
2022/05/15 08:54:40;;;;;;;;;5.67;5.00;;;;;44.80;14.40;99741.38;5057035;28;46159;-74
2022/05/15 08:57:15;;;;;;;;;9.33;8.67;;;;;46.07;14.08;99761.72;5057221;28;45475;-74
2022/05/15 08:59:52;;;;;;;;;14.67;14.00;;;;;47.11;12.87;99760.56;5056691;28;45501;-74
2022/05/15 09:02:18;;;;;;;;;5.67;5.33;;;;;47.53;13.20;99769.50;5055502;28;45532;-74
2022/05/15 09:04:43;;;;;;;;;2.67;2.33;;;;;47.90;12.91;99775.44;5056680;28;45535;-74
2022/05/15 09:07:34;;;;;;;;;6.00;4.00;;;;;48.07;13.52;99764.75;5057018;28;45481;-74
2022/05/15 09:10:32;;;;;;;;;4.67;3.00;;;;;48.09;12.52;99773.69;5056814;28;45263;-72
2022/05/15 09:13:34;;;;;;;;;3.00;2.00;;;;;48.23;12.16;99757.84;5056869;28;45506;-75
2022/05/15 09:16:02;;;;;;;;;3.00;3.00;;;;;48.16;11.77;99772.59;5047006;28;45965;-73
2022/05/15 09:18:28;;;;;;;;;3.00;3.00;;;;;48.09;11.47;99749.59;5056365;28;45344;-73
2022/05/15 09:21:03;;;;;;;;;4.33;4.33;;;;;48.88;11.77;99757.75;5056281;28;45506;-73
2022/05/15 09:23:40;;;;;;;;;2.67;2.00;;;;;49.08;11.81;99761.25;5056369;28;45392;-73
2022/05/15 09:26:06;;;;;;;;;2.67;2.33;;;;;49.09;11.79;99762.13;5055151;28;45424;-73
2022/05/15 09:28:41;;;;;;;;;5.00;3.00;;;;;48.58;11.04;99761.97;5059187;28;45447;-73
2022/05/15 09:31:29;;;;;;;;;2.33;2.00;;;;;48.87;11.18;99759.69;5060076;28;45528;-72
2022/05/15 09:34:06;;;;;;;;;4.33;4.00;;;;;49.37;11.10;99756.13;5060150;28;45424;-75
2022/05/15 09:36:34;;;;;;;;;4.00;4.00;;;;;49.52;11.10;99761.31;5059684;28;45595;-75
2022/05/15 09:39:16;;;;;;;;;3.33;3.33;;;;;49.45;10.66;99772.47;5059898;28;45285;-74
2022/05/15 09:44:46;;;;;;;;;5.33;5.33;;;;;49.84;10.59;99775.94;5017335;28;45582;-74
2022/05/15 09:47:33;;;;;;;;;3.00;3.00;;;;;50.15;10.74;99780.50;5016863;28;46018;-74
2022/05/15 09:49:59;;;;;;;;;4.00;3.00;;;;;49.78;10.96;99782.41;5042662;28;45338;-74
2022/05/15 09:52:55;;;;;;;;;3.33;3.33;;;;;50.12;10.60;99794.88;5059149;28;45189;-74
2022/05/15 09:55:26;;;;;;;;;3.33;2.33;;;;;50.17;10.66;99790.56;5054580;28;45520;-74
2022/05/15 09:57:59;;;;;;;;;2.00;2.00;;;;;50.23;10.13;99787.69;5059178;28;45336;-74
2022/05/15 10:00:28;;;;;;;;;4.00;3.00;;;;;50.56;10.11;99796.69;5059317;28;45429;-74
2022/05/15 10:03:03;;;;;;;;;3.33;2.67;;;;;50.75;10.54;99792.78;5059096;28;45435;-74
2022/05/15 10:05:31;;;;;;;;;4.33;4.00;;;;;50.84;10.51;99802.53;5059599;28;45341;-74
2022/05/15 10:08:00;;;;;;;;;4.00;3.33;;;;;51.11;10.70;99802.94;5058905;28;46236;-74
2022/05/15 10:10:34;;;;;;;;;3.67;2.00;;;;;51.21;9.85;99804.31;5059051;28;45528;-74
2022/05/15 10:13:18;;;;;;;;;3.33;3.00;;;;;51.11;9.68;99799.31;5059146;28;45519;-74
2022/05/15 10:15:50;;;;;;;;;4.33;3.67;;;;;51.05;9.98;99803.88;5059641;28;45301;-74
2022/05/15 10:18:22;;;;;;;;;3.67;3.67;;;;;50.84;9.85;99807.22;5059224;28;45529;-76
2022/05/15 10:20:52;;;;;;;;;4.00;4.00;;;;;50.56;9.83;99805.91;5058961;28;45839;-74
2022/05/15 10:23:26;;;;;;;;;3.00;2.33;;;;;50.48;9.84;99804.28;5046165;28;45468;-74
2022/05/15 10:26:02;;;;;;;;;4.00;3.67;;;;;49.76;10.77;99779.03;5038506;28;45279;-74
2022/05/15 10:28:28;;;;;;;;;4.33;2.33;;;;;48.81;11.18;99755.03;5047614;28;45926;-73
2022/05/15 10:31:35;;;;;;;;;3.00;3.00;;;;;48.67;12.41;99803.28;5055552;28;45554;-73
2022/05/15 10:34:10;;;;;;;;;3.00;3.00;;;;;48.13;12.22;99810.94;5056823;28;45559;-73
2022/05/15 10:37:03;;;;;;;;;5.67;4.00;;;;;47.38;12.35;99812.06;5057041;28;45397;-73
2022/05/15 10:39:56;;;;;;;;;3.67;3.67;;;;;45.75;12.84;99810.97;5055802;28;46707;-72
2022/05/15 10:42:39;;;;;;;;;4.33;4.00;;;;;44.79;13.75;99801.13;5056226;28;45405;-73
2022/05/15 10:45:27;;;;;;;;;3.67;2.67;;;;;44.37;14.46;99813.75;4987050;28;45628;-73
2022/05/15 10:48:17;;;;;;;;;4.00;3.67;;;;;44.72;14.29;99804.84;5037694;28;45377;-73
2022/05/15 10:50:53;;;;;;;;;3.67;3.33;;;;;45.42;14.23;99800.50;5035735;28;45287;-73
2022/05/15 10:59:46;;;;;;;;;4.67;4.33;;;;;44.83;13.59;99776.81;5038468;28;45468;-73
2022/05/15 11:02:27;;;;;;;;;4.00;3.33;;;;;44.63;14.45;99771.06;5038715;28;46109;-73
2022/05/15 11:05:07;;;;;;;;;3.67;3.67;;;;;44.24;14.27;99783.28;5038112;28;45297;-73
2022/05/15 11:07:53;;;;;;;;;4.00;3.67;;;;;43.50;15.21;99762.91;5038588;28;45617;-73
2022/05/15 11:10:50;;;;;;;;;2.67;2.67;;;;;42.94;15.66;99758.75;5038642;28;45363;-73
2022/05/15 11:13:21;;;;;;;;;3.00;2.33;;;;;41.28;16.23;99756.75;5037319;28;45559;-72
2022/05/15 11:15:49;;;;;;;;;4.00;3.67;;;;;39.88;17.24;99761.81;5037954;28;45276;-73
2022/05/15 11:18:24;;;;;;;;;3.33;2.67;;;;;39.26;18.83;99761.88;5038757;28;45294;-72
2022/05/15 11:20:54;;;;;;;;;6.33;5.33;;;;;38.74;19.25;99759.00;5038477;28;45756;-73
2022/05/15 11:23:39;;;;;;;;;4.33;4.33;;;;;38.18;19.75;99755.41;5038147;28;45524;-72
2022/05/15 11:26:13;;;;;;;;;5.33;5.00;;;;;37.75;20.75;99751.44;5036854;28;45397;-72
2022/05/15 11:28:50;;;;;;;;;4.00;4.00;;;;;37.31;20.36;99737.47;5038191;28;45342;-72
2022/05/15 11:31:21;;;;;;;;;5.00;5.00;;;;;36.74;20.76;99738.16;5038558;28;45309;-72
2022/05/15 11:33:56;;;;;;;;;4.00;4.00;;;;;36.26;21.59;99744.34;5037859;28;45394;-72
2022/05/15 11:36:21;;;;;;;;;4.33;3.00;;;;;35.97;21.57;99733.34;5036474;28;45252;-72
2022/05/15 11:39:22;;;;;;;;;6.33;4.67;;;;;35.70;22.13;99731.25;5038669;28;45413;-72
2022/05/15 11:42:10;;;;;;;;;4.00;3.67;;;;;35.39;22.80;99729.31;5038733;28;45296;-72
2022/05/15 11:44:42;;;;;;;;;3.67;3.00;;;;;35.34;23.43;99736.16;5036537;28;45579;-72
2022/05/15 11:47:34;;;;;;;;;3.00;2.67;;;;;35.21;23.06;99720.06;5037890;28;45264;-72
2022/05/15 11:50:11;;;;;;;;;4.67;4.00;;;;;34.94;23.59;99723.25;5037393;28;45354;-72
2022/05/15 11:53:02;;;;;;;;;6.33;5.00;;;;;34.79;23.72;99722.69;5037325;28;45450;-72
2022/05/15 11:55:54;;;;;;;;;3.67;3.67;;;;;34.70;24.04;99715.34;5037431;28;46066;-72
2022/05/15 11:58:37;;;;;;;;;5.33;4.67;;;;;34.66;24.07;99715.59;5034715;28;45323;-72
2022/05/15 12:01:14;;;;;;;;;5.67;4.00;;;;;34.59;24.02;99727.06;5037388;28;45302;-72
2022/05/15 12:03:40;;;;;;;;;5.67;5.00;;;;;34.43;23.78;99714.78;5037783;28;45354;-72
2022/05/15 12:06:09;;;;;;;;;6.33;5.00;;;;;34.04;23.24;99689.94;5035796;28;46614;-71